Terminal Aerodrome Forecast
Issued by NWS Shreveport, LA

Home | Current Version | Previous Version | Text Only | Print | Product List | Glossary On
Versions: 1 2 3 4 5 6 7 8 9 10 11 12 13
000
FTUS44 KSHV 171100
TAFMLU
TAF
KMLU 171120Z 1712/1812 VRB03KT P6SM SCT250
      TEMPO 1712/1714 4SM BR
     FM171800 VRB04KT P6SM SCT040 BKN250
     FM180100 VRB03KT P6SM SCT250
      TEMPO 1808/1812 2SM BR=

USA.gov is the U.S. government's official web portal to all federal, state and local government web resources and services.